Time;durP1;ratioP1;P1;durP2;ratioP2;P2;SDS_P1;SDS_P2;PMS_P1;PMS_P2;Temp;Humidity;BMP_temperature;BMP_pressure;BME280_temperature;BME280_humidity;BME280_pressure;Samples;Min_cycle;Max_cycle;Signal;HPM_P1;HPM_P2
2023/04/13 00:00:50;;;;;;;5.60;5.10;;;9.40;99.90;;;;;;4979995;28;20221;-86
2023/04/13 00:03:17;;;;;;;6.73;5.47;;;9.40;99.90;;;;;;4973914;28;20937;-71
2023/04/13 00:05:44;;;;;;;5.33;4.80;;;9.40;99.90;;;;;;4958026;28;20224;-71
2023/04/13 00:08:10;;;;;;;8.33;5.63;;;9.30;99.90;;;;;;4977528;28;20204;-70
2023/04/13 00:10:35;;;;;;;6.00;5.43;;;9.30;99.90;;;;;;4977219;28;20213;-71
2023/04/13 00:13:06;;;;;;;6.97;6.37;;;9.30;99.90;;;;;;4979730;28;20285;-71
2023/04/13 00:15:35;;;;;;;6.07;5.33;;;9.20;99.90;;;;;;4974496;28;20220;-73
2023/04/13 00:18:03;;;;;;;6.17;5.40;;;9.10;99.90;;;;;;4976151;28;20208;-72
2023/04/13 00:20:28;;;;;;;7.03;6.30;;;9.10;99.90;;;;;;4977866;28;20204;-71
2023/04/13 00:22:55;;;;;;;6.80;6.20;;;9.10;99.90;;;;;;4973855;28;20238;-72
2023/04/13 00:25:20;;;;;;;6.60;5.97;;;9.00;99.90;;;;;;4978088;28;20284;-71
2023/04/13 00:27:46;;;;;;;6.83;5.63;;;9.00;99.90;;;;;;4976064;28;20304;-71
2023/04/13 00:30:13;;;;;;;7.77;5.40;;;9.00;99.90;;;;;;4958747;28;20599;-70
2023/04/13 00:32:41;;;;;;;7.67;6.10;;;8.90;99.90;;;;;;4974683;28;20234;-71
2023/04/13 00:35:07;;;;;;;7.63;6.07;;;8.90;99.90;;;;;;4947718;28;20207;-70
2023/04/13 00:37:33;;;;;;;6.50;5.83;;;8.80;99.90;;;;;;4967072;28;20201;-71
2023/04/13 00:39:58;;;;;;;5.87;5.27;;;8.80;99.90;;;;;;4967112;28;20667;-70
2023/04/13 00:42:24;;;;;;;8.20;6.50;;;8.80;99.90;;;;;;4965341;28;20211;-69
2023/04/13 00:44:53;;;;;;;6.57;5.87;;;8.70;99.90;;;;;;4967291;28;20249;-69
2023/04/13 00:47:32;;;;;;;9.50;6.40;;;8.70;99.90;;;;;;4967434;28;20228;-70
2023/04/13 00:50:00;;;;;;;8.80;7.03;;;8.70;99.90;;;;;;4967950;28;20207;-70
2023/04/13 00:52:27;;;;;;;8.27;6.80;;;8.70;99.90;;;;;;4971518;28;20703;-70
2023/04/13 00:54:55;;;;;;;7.87;7.07;;;8.70;99.90;;;;;;4969844;28;20216;-70
2023/04/13 00:57:22;;;;;;;7.63;6.93;;;8.60;99.90;;;;;;4976598;28;20584;-70
2023/04/13 00:59:48;;;;;;;9.30;7.07;;;8.60;99.90;;;;;;4976166;28;20221;-69
2023/04/13 01:02:15;;;;;;;8.73;7.80;;;8.60;99.90;;;;;;4976335;28;20739;-70
2023/04/13 01:04:41;;;;;;;8.53;7.67;;;8.60;99.90;;;;;;4976436;28;20648;-69
2023/04/13 01:07:23;;;;;;;8.50;7.67;;;8.50;99.90;;;;;;4975919;28;20256;-69
2023/04/13 01:10:02;;;;;;;9.57;8.03;;;8.50;99.90;;;;;;4968575;28;20209;-69
2023/04/13 01:12:45;;;;;;;9.93;8.53;;;8.50;99.90;;;;;;4974418;28;20196;-71
2023/04/13 01:15:13;;;;;;;10.43;8.57;;;8.50;99.90;;;;;;4971145;28;20695;-69
2023/04/13 01:17:42;;;;;;;8.00;7.23;;;8.50;99.90;;;;;;4967900;28;20200;-70
2023/04/13 01:20:10;;;;;;;13.10;9.13;;;8.40;99.90;;;;;;4968707;28;20230;-69
2023/04/13 01:22:40;;;;;;;10.10;9.03;;;8.40;99.90;;;;;;4965788;28;20692;-69
2023/04/13 01:25:38;;;;;;;9.60;7.93;;;8.30;99.90;;;;;;4966747;28;20283;-69
2023/04/13 01:28:06;;;;;;;8.37;7.57;;;8.30;99.90;;;;;;4965678;28;20198;-69
2023/04/13 01:30:34;;;;;;;9.73;8.33;;;8.20;99.90;;;;;;4965731;28;20698;-69
2023/04/13 01:33:01;;;;;;;9.67;8.77;;;8.20;99.90;;;;;;4966496;28;20241;-68
2023/04/13 01:35:28;;;;;;;11.43;7.87;;;8.20;99.90;;;;;;4972611;28;20202;-69
2023/04/13 01:37:54;;;;;;;10.07;8.37;;;8.20;99.90;;;;;;4969894;28;20198;-69
2023/04/13 01:40:21;;;;;;;9.33;8.03;;;8.20;99.90;;;;;;4964577;28;20580;-69
2023/04/13 01:42:47;;;;;;;9.90;8.80;;;8.20;99.90;;;;;;4969755;28;20368;-69
2023/04/13 01:45:21;;;;;;;10.87;9.60;;;8.20;99.90;;;;;;4964236;28;20206;-68
2023/04/13 01:48:06;;;;;;;10.73;9.47;;;8.20;99.90;;;;;;4967160;28;20237;-74
2023/04/13 01:50:39;;;;;;;10.53;9.17;;;8.30;99.90;;;;;;4966737;28;20206;-71
2023/04/13 01:53:10;;;;;;;9.63;8.43;;;8.30;99.90;;;;;;4976871;28;20289;-70
2023/04/13 01:55:40;;;;;;;11.67;10.47;;;8.30;99.90;;;;;;4963344;28;20207;-72
2023/04/13 01:58:09;;;;;;;10.30;9.10;;;8.30;99.90;;;;;;4967758;28;20204;-71
2023/04/13 02:00:35;;;;;;;10.33;9.33;;;8.30;99.90;;;;;;4967468;28;20845;-71
2023/04/13 02:03:03;;;;;;;14.10;9.60;;;8.30;99.90;;;;;;4965573;28;20215;-71
2023/04/13 02:05:30;;;;;;;11.33;9.30;;;8.20;99.90;;;;;;4969844;28;20204;-71
2023/04/13 02:07:55;;;;;;;9.60;8.53;;;8.20;99.90;;;;;;4969957;28;20206;-71
2023/04/13 02:10:21;;;;;;;8.70;7.90;;;8.10;99.90;;;;;;4968957;28;20194;-71
2023/04/13 02:12:46;;;;;;;8.20;7.40;;;8.10;99.90;;;;;;4966326;28;20205;-71
2023/04/13 02:15:12;;;;;;;9.33;7.50;;;8.00;99.90;;;;;;4970709;28;20739;-70
2023/04/13 02:17:38;;;;;;;8.40;6.73;;;7.80;99.90;;;;;;4970659;28;20205;-71
2023/04/13 02:20:10;;;;;;;11.23;8.40;;;7.70;99.90;;;;;;4970208;28;20212;-70
2023/04/13 02:22:38;;;;;;;8.70;6.33;;;7.70;99.90;;;;;;4969330;28;20209;-71
2023/04/13 02:25:05;;;;;;;9.00;6.33;;;7.60;99.90;;;;;;4969861;28;20208;-70
2023/04/13 02:27:31;;;;;;;9.23;6.83;;;7.50;99.90;;;;;;4969241;28;20673;-70
2023/04/13 02:29:57;;;;;;;7.70;6.03;;;7.50;99.90;;;;;;4968418;28;20666;-70
2023/04/13 02:32:23;;;;;;;8.43;7.30;;;7.50;99.90;;;;;;4974687;28;20722;-72
2023/04/13 02:34:49;;;;;;;9.33;6.60;;;7.40;99.90;;;;;;4975545;28;20231;-70
2023/04/13 02:37:14;;;;;;;6.73;5.93;;;7.40;99.90;;;;;;4979219;28;20214;-71
2023/04/13 02:39:40;;;;;;;7.70;6.33;;;7.30;99.90;;;;;;4979455;28;20215;-71
2023/04/13 02:42:06;;;;;;;7.60;6.50;;;7.30;99.90;;;;;;4978221;28;20253;-70
2023/04/13 02:44:32;;;;;;;7.10;6.40;;;7.30;99.90;;;;;;4970109;28;20731;-71
2023/04/13 02:46:58;;;;;;;7.47;5.93;;;7.20;99.90;;;;;;4979134;28;20703;-71
2023/04/13 02:49:23;;;;;;;9.83;6.67;;;7.10;99.90;;;;;;4979150;28;20204;-71
2023/04/13 02:51:49;;;;;;;11.87;6.23;;;7.10;99.90;;;;;;4978950;28;20250;-70
2023/04/13 02:54:15;;;;;;;9.13;6.30;;;7.10;99.90;;;;;;4976506;28;20204;-70
2023/04/13 02:56:42;;;;;;;7.70;6.57;;;7.00;99.90;;;;;;4979053;28;21063;-70
2023/04/13 02:59:07;;;;;;;8.23;7.07;;;6.90;99.90;;;;;;4978968;28;20220;-71
2023/04/13 03:01:33;;;;;;;10.67;6.40;;;6.90;99.90;;;;;;4979131;28;20201;-69
2023/04/13 03:03:58;;;;;;;9.57;6.57;;;6.80;99.90;;;;;;4977631;28;20193;-70
2023/04/13 03:06:24;;;;;;;12.83;6.03;;;6.80;99.90;;;;;;4979101;28;20240;-70
2023/04/13 03:08:50;;;;;;;8.80;6.57;;;6.80;99.90;;;;;;4979081;28;20576;-71
2023/04/13 03:11:16;;;;;;;7.50;6.57;;;6.80;99.90;;;;;;4978894;28;20208;-70
2023/04/13 03:13:42;;;;;;;7.03;6.30;;;6.80;99.90;;;;;;4978914;28;20212;-70
2023/04/13 03:16:10;;;;;;;11.33;6.60;;;6.70;99.90;;;;;;4976400;28;20207;-70
2023/04/13 03:18:37;;;;;;;8.43;6.67;;;6.70;99.90;;;;;;4978889;28;20224;-70
2023/04/13 03:21:04;;;;;;;7.77;5.87;;;6.70;99.90;;;;;;4978529;28;20209;-70
2023/04/13 03:23:30;;;;;;;8.87;6.20;;;6.70;99.90;;;;;;4978000;28;20287;-70
2023/04/13 03:25:56;;;;;;;6.73;5.27;;;6.80;99.90;;;;;;4978036;28;20291;-70
2023/04/13 03:28:22;;;;;;;7.73;5.83;;;6.80;99.90;;;;;;4969371;28;20332;-70
2023/04/13 03:30:47;;;;;;;8.73;6.47;;;6.80;99.90;;;;;;4978553;28;20362;-69
2023/04/13 03:33:12;;;;;;;5.80;4.83;;;6.80;99.90;;;;;;4978627;28;20236;-70
2023/04/13 03:35:38;;;;;;;8.10;5.43;;;6.80;99.90;;;;;;4978321;28;20205;-70
2023/04/13 03:38:03;;;;;;;9.30;4.93;;;6.90;99.90;;;;;;4978509;28;20271;-70
2023/04/13 03:40:29;;;;;;;5.27;4.53;;;6.90;99.90;;;;;;4977077;28;20660;-70
2023/04/13 03:42:55;;;;;;;8.77;5.60;;;6.90;99.90;;;;;;4978576;28;20287;-70
2023/04/13 03:45:20;;;;;;;6.63;4.63;;;6.80;99.90;;;;;;4960904;28;20197;-70
2023/04/13 03:47:46;;;;;;;6.50;5.27;;;6.80;99.90;;;;;;4978355;28;20208;-70
2023/04/13 03:50:11;;;;;;;11.00;5.63;;;6.80;99.90;;;;;;4976965;28;20252;-69
2023/04/13 03:52:37;;;;;;;14.73;5.93;;;6.80;99.90;;;;;;4969241;28;20210;-69
2023/04/13 03:55:02;;;;;;;6.57;5.57;;;6.80;99.90;;;;;;4978122;28;20266;-69
2023/04/13 03:57:28;;;;;;;11.73;5.73;;;6.80;99.90;;;;;;4976779;28;20247;-69
2023/04/13 03:59:54;;;;;;;5.43;4.30;;;6.80;99.90;;;;;;4976979;28;20244;-69
2023/04/13 04:02:20;;;;;;;6.53;5.07;;;6.90;99.90;;;;;;4958480;28;20201;-71
2023/04/13 04:04:46;;;;;;;8.23;5.33;;;6.90;99.90;;;;;;4966210;28;20197;-70
2023/04/13 04:07:11;;;;;;;8.30;4.73;;;6.90;99.90;;;;;;4977211;28;20699;-71
2023/04/13 04:09:37;;;;;;;9.27;5.47;;;6.90;99.90;;;;;;4977651;28;20200;-70
2023/04/13 04:12:03;;;;;;;8.07;5.10;;;6.90;99.90;;;;;;4977364;28;20919;-70
2023/04/13 04:14:29;;;;;;;11.30;5.40;;;6.80;99.90;;;;;;4977385;28;20219;-78
2023/04/13 04:16:54;;;;;;;7.70;4.67;;;6.80;99.90;;;;;;4966549;28;20319;-71
2023/04/13 04:19:20;;;;;;;6.00;4.73;;;6.80;99.90;;;;;;4964564;28;20240;-74
2023/04/13 04:21:45;;;;;;;6.87;4.97;;;6.80;99.90;;;;;;4971345;28;20201;-71
2023/04/13 04:24:19;;;;;;;8.17;5.40;;;6.80;99.90;;;;;;4977105;28;21202;-71
2023/04/13 04:26:49;;;;;;;5.97;4.93;;;6.80;99.90;;;;;;4981167;28;20211;-71
2023/04/13 04:29:20;;;;;;;5.93;5.03;;;6.80;99.90;;;;;;4972639;28;20215;-71
2023/04/13 04:31:51;;;;;;;9.93;5.07;;;6.80;99.90;;;;;;4976990;28;20201;-70
2023/04/13 04:34:20;;;;;;;5.90;4.67;;;6.80;99.90;;;;;;4975636;28;20256;-71
2023/04/13 04:36:49;;;;;;;8.70;5.17;;;6.80;99.90;;;;;;4977148;28;20208;-71
2023/04/13 04:39:20;;;;;;;8.63;4.67;;;6.90;99.90;;;;;;4976921;28;20247;-70
2023/04/13 04:41:47;;;;;;;6.33;4.50;;;6.90;99.90;;;;;;4976771;28;20303;-70
2023/04/13 04:44:15;;;;;;;5.20;4.70;;;7.00;99.90;;;;;;4974704;28;20204;-70
2023/04/13 04:46:42;;;;;;;8.13;4.63;;;7.10;99.90;;;;;;4959310;28;20224;-70
2023/04/13 04:49:08;;;;;;;6.73;5.13;;;7.10;99.90;;;;;;4974237;28;20312;-70
2023/04/13 04:51:34;;;;;;;9.13;4.93;;;7.20;99.90;;;;;;4969114;28;20989;-70
2023/04/13 04:54:01;;;;;;;6.57;4.73;;;7.20;99.90;;;;;;4964593;28;20235;-71
2023/04/13 04:56:26;;;;;;;5.20;4.67;;;7.20;99.90;;;;;;4968232;28;20213;-70
2023/04/13 04:58:52;;;;;;;9.83;4.87;;;7.30;99.90;;;;;;4965524;28;20223;-70
2023/04/13 05:01:21;;;;;;;7.93;4.63;;;7.30;99.90;;;;;;4966852;28;20232;-70
2023/04/13 05:03:47;;;;;;;7.50;4.73;;;7.30;99.90;;;;;;4970230;28;20197;-70
2023/04/13 05:06:12;;;;;;;6.00;4.87;;;7.40;99.90;;;;;;4961151;28;20200;-71
2023/04/13 05:08:38;;;;;;;8.20;4.93;;;7.40;99.90;;;;;;4967790;28;20201;-70
2023/04/13 05:11:07;;;;;;;6.90;5.17;;;7.50;99.90;;;;;;4967450;28;20201;-70
2023/04/13 05:13:32;;;;;;;5.33;4.83;;;7.50;99.90;;;;;;4967318;28;20228;-70
2023/04/13 05:15:58;;;;;;;6.93;5.13;;;7.50;99.90;;;;;;4967099;28;20687;-70
2023/04/13 05:18:24;;;;;;;8.10;6.27;;;7.50;99.90;;;;;;4966141;28;20708;-69
2023/04/13 05:20:50;;;;;;;8.33;5.93;;;7.60;99.90;;;;;;4965473;28;20671;-69
2023/04/13 05:23:15;;;;;;;8.17;4.63;;;7.70;99.90;;;;;;4966753;28;20193;-69
2023/04/13 05:25:41;;;;;;;8.23;5.83;;;7.70;99.90;;;;;;4966686;28;20198;-70
2023/04/13 05:28:06;;;;;;;6.73;5.50;;;7.80;99.90;;;;;;4966855;28;20197;-69
2023/04/13 05:30:32;;;;;;;7.60;6.13;;;7.80;99.90;;;;;;4968997;28;20209;-70
2023/04/13 05:33:00;;;;;;;10.10;5.83;;;7.80;99.90;;;;;;4971283;28;20248;-70
2023/04/13 05:35:26;;;;;;;8.00;6.53;;;7.80;99.90;;;;;;4966972;28;20289;-70
2023/04/13 05:37:52;;;;;;;11.70;6.27;;;7.90;99.90;;;;;;4966767;28;20651;-70
2023/04/13 05:40:18;;;;;;;9.93;7.30;;;7.90;99.90;;;;;;4971636;28;20217;-70
2023/04/13 05:42:43;;;;;;;9.93;6.80;;;7.90;99.90;;;;;;4968194;28;20251;-70
2023/04/13 05:45:09;;;;;;;11.37;7.10;;;7.90;99.90;;;;;;4971554;28;20192;-70
2023/04/13 05:47:35;;;;;;;8.90;6.97;;;7.90;99.90;;;;;;4969176;28;20201;-70
2023/04/13 05:50:01;;;;;;;9.43;6.60;;;7.90;99.90;;;;;;4970059;28;20384;-73
2023/04/13 05:52:26;;;;;;;10.20;6.77;;;7.80;99.90;;;;;;4970582;28;20684;-72
2023/04/13 05:54:52;;;;;;;8.63;6.47;;;7.80;99.90;;;;;;4966936;28;20208;-73
2023/04/13 05:57:19;;;;;;;8.33;6.17;;;7.80;99.90;;;;;;4970884;28;20935;-73
2023/04/13 05:59:45;;;;;;;8.23;6.67;;;7.90;99.90;;;;;;4970355;28;20217;-73
2023/04/13 06:02:10;;;;;;;6.70;5.70;;;8.00;99.90;;;;;;4970406;28;20188;-71
2023/04/13 06:04:36;;;;;;;8.23;6.23;;;8.20;99.90;;;;;;4970164;28;20576;-73
2023/04/13 06:07:03;;;;;;;7.83;6.13;;;8.30;99.90;;;;;;4966971;28;20199;-72
2023/04/13 06:09:28;;;;;;;9.40;6.10;;;8.30;99.90;;;;;;4967365;28;20329;-71
2023/04/13 06:11:54;;;;;;;6.27;4.97;;;8.40;99.90;;;;;;4970461;28;20883;-72
2023/04/13 06:14:21;;;;;;;6.00;5.40;;;8.50;99.90;;;;;;4951712;28;20705;-71
2023/04/13 06:16:46;;;;;;;6.37;5.77;;;8.60;99.90;;;;;;4969334;28;20275;-71
2023/04/13 06:19:11;;;;;;;8.27;5.30;;;8.70;99.90;;;;;;4967046;28;20258;-75
2023/04/13 06:21:37;;;;;;;5.57;4.93;;;8.80;99.90;;;;;;4954092;28;20205;-77
2023/04/13 06:24:03;;;;;;;5.17;4.60;;;8.80;99.90;;;;;;4968780;28;20205;-79
2023/04/13 06:26:28;;;;;;;6.10;4.87;;;8.80;99.90;;;;;;4968545;28;20679;-72
2023/04/13 06:28:54;;;;;;;7.70;4.73;;;8.80;99.90;;;;;;4971177;28;20612;-71
2023/04/13 06:31:20;;;;;;;8.33;4.93;;;8.90;99.90;;;;;;4966399;28;20200;-71
2023/04/13 06:33:46;;;;;;;5.43;4.63;;;8.90;99.90;;;;;;4969653;28;20321;-71
2023/04/13 06:36:11;;;;;;;7.13;4.50;;;9.00;99.90;;;;;;4970139;28;20352;-73
2023/04/13 06:38:38;;;;;;;5.70;4.37;;;8.90;99.90;;;;;;4972901;28;20225;-75
2023/04/13 06:41:03;;;;;;;5.97;5.20;;;8.90;99.90;;;;;;4971559;28;20301;-72
2023/04/13 06:43:29;;;;;;;9.40;4.87;;;8.90;99.90;;;;;;4969123;28;20210;-72
2023/04/13 06:45:59;;;;;;;6.67;3.80;;;8.80;99.90;;;;;;4967001;28;20202;-73
2023/04/13 06:48:25;;;;;;;3.60;3.30;;;8.90;99.90;;;;;;4970333;28;20915;-72
2023/04/13 06:50:51;;;;;;;6.30;3.90;;;8.90;99.90;;;;;;4967976;28;20197;-72
2023/04/13 06:53:17;;;;;;;5.50;3.97;;;8.90;99.90;;;;;;4969037;28;20315;-73
2023/04/13 06:55:43;;;;;;;4.10;3.47;;;8.80;99.90;;;;;;4967456;28;20205;-70
2023/04/13 06:58:10;;;;;;;8.97;3.93;;;8.90;99.90;;;;;;4968877;28;20212;-73
2023/04/13 07:00:36;;;;;;;5.30;3.17;;;8.90;99.90;;;;;;4967694;28;20308;-70
2023/04/13 07:03:02;;;;;;;4.73;3.73;;;9.00;99.90;;;;;;4968731;28;20636;-71
2023/04/13 07:05:28;;;;;;;4.57;3.50;;;9.10;99.90;;;;;;4968482;28;20257;-72
2023/04/13 07:07:53;;;;;;;4.90;3.33;;;9.20;99.90;;;;;;4968549;28;20259;-72
2023/04/13 07:10:19;;;;;;;5.73;3.50;;;9.30;99.90;;;;;;4966796;28;20202;-72
2023/04/13 07:12:44;;;;;;;6.50;3.53;;;9.20;99.90;;;;;;4968867;28;20211;-71
2023/04/13 07:15:10;;;;;;;4.77;3.63;;;9.30;99.90;;;;;;4977008;28;20879;-73
2023/04/13 07:17:35;;;;;;;4.27;2.93;;;9.30;99.90;;;;;;4969939;28;20218;-74
2023/04/13 07:20:01;;;;;;;3.43;3.13;;;9.40;99.90;;;;;;4966968;28;20624;-72
2023/04/13 07:22:31;;;;;;;2.63;2.40;;;9.50;99.90;;;;;;4966618;28;20206;-72
2023/04/13 07:24:57;;;;;;;3.10;2.53;;;9.60;99.90;;;;;;4967978;28;20888;-72
2023/04/13 07:27:22;;;;;;;3.57;2.87;;;9.60;99.90;;;;;;4968702;28;20208;-72
2023/04/13 07:29:51;;;;;;;4.13;2.67;;;9.60;99.90;;;;;;4967886;28;20762;-72
2023/04/13 07:32:16;;;;;;;3.60;2.67;;;9.60;99.90;;;;;;4975730;28;20224;-72
2023/04/13 07:34:42;;;;;;;5.57;3.23;;;9.70;99.90;;;;;;4959775;28;20620;-72
2023/04/13 07:37:07;;;;;;;3.40;2.60;;;9.60;99.90;;;;;;4968706;28;20205;-72
2023/04/13 07:39:33;;;;;;;5.80;3.53;;;9.70;99.90;;;;;;4977815;28;20642;-72
2023/04/13 07:41:58;;;;;;;2.57;2.37;;;9.80;99.90;;;;;;4978003;28;20201;-71
2023/04/13 07:44:24;;;;;;;3.13;2.70;;;9.90;99.90;;;;;;4975424;28;20211;-70
2023/04/13 07:46:50;;;;;;;4.83;3.30;;;9.90;99.90;;;;;;4977513;28;20208;-76
2023/04/13 07:49:15;;;;;;;4.17;2.50;;;9.80;99.90;;;;;;4977320;28;20538;-72
2023/04/13 07:51:41;;;;;;;3.47;2.70;;;9.90;99.90;;;;;;4978378;28;20223;-72
2023/04/13 07:54:06;;;;;;;5.50;1.87;;;10.20;99.90;;;;;;4977581;28;20205;-71
2023/04/13 07:56:32;;;;;;;6.73;2.23;;;10.30;99.90;;;;;;4975134;28;20527;-69
2023/04/13 07:58:57;;;;;;;5.77;2.37;;;10.30;99.90;;;;;;4966914;28;20217;-70
2023/04/13 08:01:23;;;;;;;4.60;2.73;;;10.40;99.90;;;;;;4967796;28;20235;-69
2023/04/13 08:03:49;;;;;;;2.67;2.33;;;10.50;99.90;;;;;;4965996;28;20193;-71
2023/04/13 08:06:15;;;;;;;3.43;2.33;;;10.70;99.90;;;;;;4967258;28;20254;-71
2023/04/13 08:08:40;;;;;;;4.03;2.77;;;10.90;99.90;;;;;;4967271;28;20415;-70
2023/04/13 08:11:07;;;;;;;7.47;3.33;;;11.00;99.90;;;;;;4964146;28;20231;-71
2023/04/13 08:13:32;;;;;;;3.23;2.63;;;11.10;99.90;;;;;;4964287;28;20207;-70
2023/04/13 08:15:59;;;;;;;3.63;2.63;;;11.30;99.90;;;;;;4967661;28;20207;-70
2023/04/13 08:18:28;;;;;;;3.80;2.30;;;11.60;99.90;;;;;;4966700;28;20719;-71
2023/04/13 08:20:54;;;;;;;2.57;2.10;;;11.80;99.90;;;;;;4968127;28;20194;-73
2023/04/13 08:23:20;;;;;;;2.70;1.90;;;11.90;99.90;;;;;;4966128;28;20282;-69
2023/04/13 08:25:46;;;;;;;2.77;2.43;;;11.70;99.90;;;;;;4964938;28;20239;-71
2023/04/13 08:28:12;;;;;;;3.20;1.90;;;11.40;99.90;;;;;;4969306;28;20198;-72
2023/04/13 08:30:38;;;;;;;4.57;2.33;;;11.10;99.90;;;;;;4969939;28;20204;-69
2023/04/13 08:33:03;;;;;;;5.00;2.03;;;11.20;99.90;;;;;;4966322;28;20211;-70
2023/04/13 08:35:29;;;;;;;2.10;1.57;;;11.30;99.90;;;;;;4970874;28;20200;-76
2023/04/13 08:37:54;;;;;;;2.93;2.07;;;11.30;99.90;;;;;;4968239;28;20274;-75
2023/04/13 08:40:21;;;;;;;3.13;1.53;;;11.50;99.90;;;;;;4971041;28;20636;-77
2023/04/13 08:42:47;;;;;;;2.47;1.40;;;11.70;99.90;;;;;;4947332;28;20208;-75
2023/04/13 08:45:13;;;;;;;2.90;1.57;;;11.60;99.90;;;;;;4967640;28;20692;-77
2023/04/13 08:47:40;;;;;;;2.57;1.47;;;11.80;99.90;;;;;;4975441;28;20193;-75
2023/04/13 08:50:06;;;;;;;5.67;1.20;;;11.70;99.90;;;;;;4973769;28;20290;-75
2023/04/13 08:52:33;;;;;;;3.10;1.20;;;11.80;99.90;;;;;;4976004;28;20252;-75
2023/04/13 08:55:02;;;;;;;3.90;1.40;;;11.80;99.90;;;;;;4974227;28;20200;-75
2023/04/13 08:57:29;;;;;;;8.87;1.63;;;11.80;99.90;;;;;;4974171;28;20272;-74
2023/04/13 08:59:57;;;;;;;3.77;1.63;;;11.70;99.90;;;;;;4972547;28;20313;-80
2023/04/13 09:02:27;;;;;;;1.73;1.20;;;11.80;99.90;;;;;;4965965;28;20991;-75
2023/04/13 09:04:54;;;;;;;0.97;0.80;;;11.90;99.90;;;;;;4972995;28;20205;-75
2023/04/13 09:07:25;;;;;;;4.40;1.40;;;11.80;99.90;;;;;;4976462;28;20283;-75
2023/04/13 09:09:54;;;;;;;2.83;1.40;;;11.70;99.90;;;;;;4976327;28;20718;-74
2023/04/13 09:12:20;;;;;;;1.30;1.10;;;11.70;99.90;;;;;;4972683;28;20275;-76
2023/04/13 09:14:46;;;;;;;2.63;1.00;;;11.70;99.90;;;;;;4965101;28;20206;-74
2023/04/13 09:17:24;;;;;;;2.93;0.97;;;11.70;99.90;;;;;;4964886;28;20772;-75
2023/04/13 09:19:50;;;;;;;4.07;1.20;;;11.90;99.90;;;;;;4964592;28;20224;-75
2023/04/13 09:22:16;;;;;;;1.63;0.80;;;11.90;99.90;;;;;;4964642;28;20209;-74
2023/04/13 09:24:41;;;;;;;0.90;0.90;;;11.60;99.90;;;;;;4963405;28;20625;-75
2023/04/13 09:27:18;;;;;;;1.70;1.23;;;11.40;99.90;;;;;;4962550;28;20205;-77
2023/04/13 09:29:54;;;;;;;2.07;1.10;;;11.40;99.90;;;;;;4967978;28;20634;-85
2023/04/13 09:32:24;;;;;;;2.37;1.87;;;11.30;99.90;;;;;;4966227;28;20298;-86
2023/04/13 09:35:03;;;;;;;1.57;1.47;;;11.20;99.90;;;;;;4966661;28;20622;-66
2023/04/13 09:37:31;;;;;;;1.50;1.37;;;11.20;99.90;;;;;;4964124;28;20206;-67
2023/04/13 09:40:07;;;;;;;3.10;1.30;;;11.40;99.90;;;;;;4969946;28;20226;-69
2023/04/13 09:42:32;;;;;;;0.70;0.70;;;11.60;99.90;;;;;;4963903;28;20277;-66
2023/04/13 09:44:58;;;;;;;2.93;1.37;;;11.70;99.90;;;;;;4961943;28;20201;-65
2023/04/13 09:47:26;;;;;;;1.53;1.03;;;11.90;99.90;;;;;;4967264;28;20195;-66
2023/04/13 09:49:52;;;;;;;2.37;1.10;;;12.20;99.90;;;;;;4964115;28;20240;-66
2023/04/13 09:52:22;;;;;;;2.53;0.90;;;12.50;99.90;;;;;;4968261;28;20206;-67
2023/04/13 09:54:58;;;;;;;1.73;0.90;;;12.50;99.80;;;;;;4964131;28;20670;-65
2023/04/13 09:57:30;;;;;;;2.03;0.90;;;12.70;99.90;;;;;;4967406;28;20242;-65
2023/04/13 09:59:59;;;;;;;2.50;0.80;;;13.00;99.10;;;;;;4963134;28;20761;-64
2023/04/13 10:02:26;;;;;;;1.23;1.10;;;13.20;98.90;;;;;;4970261;28;20207;-64
2023/04/13 10:04:52;;;;;;;3.07;1.20;;;13.50;98.80;;;;;;4963023;28;20264;-64
2023/04/13 10:07:18;;;;;;;0.67;0.67;;;13.50;97.50;;;;;;4964033;28;20679;-65
2023/04/13 10:09:44;;;;;;;1.13;0.90;;;13.60;97.30;;;;;;4964075;28;20205;-66
2023/04/13 10:12:11;;;;;;;1.70;0.80;;;13.70;96.60;;;;;;4964543;28;20211;-65
2023/04/13 10:14:39;;;;;;;1.90;0.80;;;13.40;96.60;;;;;;4965456;28;20255;-66
2023/04/13 10:17:38;;;;;;;1.70;0.60;;;13.40;96.90;;;;;;4962861;28;20470;-63
2023/04/13 10:20:09;;;;;;;1.00;0.60;;;13.30;96.60;;;;;;4964478;28;20215;-65
2023/04/13 10:22:34;;;;;;;0.90;0.70;;;13.40;96.90;;;;;;4966445;28;20201;-65
2023/04/13 10:25:00;;;;;;;2.93;0.93;;;13.50;96.80;;;;;;4964983;28;20199;-64
2023/04/13 10:27:27;;;;;;;3.70;0.60;;;13.60;96.10;;;;;;4967864;28;20208;-65
2023/04/13 10:29:53;;;;;;;0.57;0.50;;;13.50;95.80;;;;;;4970418;28;20702;-63
2023/04/13 10:32:23;;;;;;;2.20;1.07;;;13.30;95.80;;;;;;4970747;28;20238;-65
2023/04/13 10:34:50;;;;;;;0.80;0.80;;;13.40;96.10;;;;;;4968004;28;20295;-65
2023/04/13 10:37:21;;;;;;;1.87;0.83;;;13.60;95.50;;;;;;4968001;28;20295;-65
2023/04/13 10:39:47;;;;;;;0.90;0.70;;;13.50;95.20;;;;;;4968698;28;20271;-65
2023/04/13 10:42:14;;;;;;;3.77;1.00;;;13.30;95.20;;;;;;4968282;28;20667;-66
2023/04/13 10:44:47;;;;;;;1.33;0.77;;;13.50;95.70;;;;;;4976613;28;20204;-80
2023/04/13 10:47:15;;;;;;;1.70;0.87;;;13.60;94.90;;;;;;4976913;28;20263;-74
2023/04/13 10:49:41;;;;;;;0.67;0.53;;;13.90;94.80;;;;;;4973386;28;20216;-79
2023/04/13 10:52:09;;;;;;;0.73;0.67;;;14.30;94.70;;;;;;4968241;28;20205;-79
2023/04/13 10:54:36;;;;;;;2.03;0.80;;;14.80;94.00;;;;;;4968307;28;20196;-79
2023/04/13 10:57:05;;;;;;;3.00;0.93;;;14.80;93.40;;;;;;4966877;28;20747;-75
2023/04/13 10:59:41;;;;;;;1.07;0.90;;;14.90;92.90;;;;;;4976931;28;20678;-72
2023/04/13 11:02:13;;;;;;;2.23;0.83;;;14.80;93.00;;;;;;4966764;28;20204;-76
2023/04/13 11:04:43;;;;;;;2.27;1.03;;;14.80;92.40;;;;;;4971313;28;20231;-75
2023/04/13 11:07:15;;;;;;;1.10;1.00;;;14.70;92.10;;;;;;4969374;28;20779;-75
2023/04/13 11:09:42;;;;;;;2.73;1.00;;;14.60;92.40;;;;;;4970492;28;20200;-75
2023/04/13 11:12:10;;;;;;;1.70;0.83;;;14.30;92.30;;;;;;4965055;28;20251;-76
2023/04/13 11:14:37;;;;;;;2.13;1.10;;;14.30;92.90;;;;;;4970095;28;20212;-74
2023/04/13 11:17:05;;;;;;;1.87;0.80;;;14.20;92.40;;;;;;4969111;28;20972;-76
2023/04/13 11:19:31;;;;;;;0.70;0.70;;;14.10;92.70;;;;;;4967648;28;20224;-76
2023/04/13 11:21:56;;;;;;;2.87;0.90;;;14.00;93.10;;;;;;4968063;28;20672;-79
2023/04/13 11:24:32;;;;;;;1.43;1.03;;;14.30;93.00;;;;;;4971283;28;20210;-73
2023/04/13 11:26:58;;;;;;;2.20;0.83;;;14.40;92.40;;;;;;4979595;28;20239;-74
2023/04/13 11:29:24;;;;;;;1.73;0.90;;;14.60;92.10;;;;;;4976775;28;20236;-75
2023/04/13 11:31:50;;;;;;;0.60;0.60;;;14.60;92.00;;;;;;4979314;28;20204;-75
2023/04/13 11:34:25;;;;;;;1.10;0.90;;;14.80;91.30;;;;;;4976850;28;20715;-75
2023/04/13 11:36:59;;;;;;;1.50;0.87;;;15.00;90.90;;;;;;4986392;28;20222;-75
2023/04/13 11:39:26;;;;;;;2.83;1.17;;;14.90;91.30;;;;;;4968205;28;20927;-76
2023/04/13 11:41:51;;;;;;;11.50;1.10;;;14.90;90.60;;;;;;4967618;28;21016;-75
2023/04/13 11:44:17;;;;;;;2.93;1.00;;;14.80;90.30;;;;;;4964250;28;20201;-76
2023/04/13 11:46:42;;;;;;;0.77;0.73;;;14.80;90.30;;;;;;4968869;28;20197;-76
2023/04/13 11:49:08;;;;;;;1.10;0.77;;;15.20;89.50;;;;;;4965612;28;20213;-75
2023/04/13 11:51:34;;;;;;;2.60;1.07;;;15.30;88.60;;;;;;4969746;28;21294;-76
2023/04/13 11:54:00;;;;;;;0.80;0.80;;;15.60;88.20;;;;;;4966918;28;20200;-76
2023/04/13 11:56:26;;;;;;;0.80;0.80;;;15.80;87.10;;;;;;4967305;28;20224;-78
2023/04/13 11:58:52;;;;;;;1.63;0.80;;;15.80;86.60;;;;;;4965481;28;20844;-74
2023/04/13 12:01:20;;;;;;;2.57;0.93;;;15.70;86.00;;;;;;4964890;28;20196;-83
2023/04/13 12:03:46;;;;;;;2.53;0.93;;;15.90;87.50;;;;;;4966629;28;20698;-83
2023/04/13 12:06:13;;;;;;;3.50;0.87;;;16.10;86.10;;;;;;4967671;28;20193;-81
2023/04/13 12:08:39;;;;;;;2.53;1.20;;;16.00;84.20;;;;;;4967442;28;20205;-80
2023/04/13 12:11:06;;;;;;;1.83;1.00;;;15.90;85.10;;;;;;4963772;28;20694;-76
2023/04/13 12:13:47;;;;;;;0.93;0.80;;;16.00;83.50;;;;;;4971226;28;20274;-81
2023/04/13 12:16:27;;;;;;;1.43;0.90;;;15.90;83.40;;;;;;4970105;28;20220;-78
2023/04/13 12:18:54;;;;;;;1.07;0.53;;;16.20;85.40;;;;;;4977892;28;20232;-79
2023/04/13 12:21:20;;;;;;;2.43;1.00;;;16.40;83.30;;;;;;4976034;28;20350;-74
2023/04/13 12:23:53;;;;;;;2.97;0.80;;;16.10;81.80;;;;;;4978251;28;20703;-74
2023/04/13 12:26:19;;;;;;;1.17;0.80;;;15.50;83.80;;;;;;4977430;28;20662;-76
2023/04/13 12:28:46;;;;;;;1.20;0.73;;;15.20;84.90;;;;;;4976837;28;20193;-75
2023/04/13 12:31:12;;;;;;;1.47;0.80;;;15.00;85.60;;;;;;4972647;28;20213;-80
2023/04/13 12:33:38;;;;;;;1.50;0.73;;;14.90;86.20;;;;;;4967393;28;20228;-78
2023/04/13 12:36:05;;;;;;;1.93;1.00;;;14.80;86.40;;;;;;4977404;28;20303;-75
2023/04/13 12:38:31;;;;;;;1.47;0.87;;;14.70;86.10;;;;;;4974744;28;20197;-76
2023/04/13 12:40:59;;;;;;;2.33;1.03;;;14.90;86.50;;;;;;4973744;28;20565;-75
2023/04/13 12:43:25;;;;;;;1.40;0.77;;;15.00;86.30;;;;;;4975874;28;20196;-73
2023/04/13 12:45:52;;;;;;;1.43;1.10;;;15.00;85.10;;;;;;4977113;28;20200;-75
2023/04/13 12:48:18;;;;;;;1.13;1.00;;;14.90;85.90;;;;;;4976135;28;20208;-75
2023/04/13 12:50:44;;;;;;;0.77;0.77;;;15.20;87.40;;;;;;4977052;28;20205;-76
2023/04/13 12:53:10;;;;;;;4.17;0.90;;;15.30;85.60;;;;;;4975128;28;20200;-74